createdAt,value
2022-10-19T00:01:12.499Z,16.74
2022-10-19T00:03:40.826Z,16.63
2022-10-19T00:06:27.523Z,16.64
2022-10-19T00:09:02.673Z,16.69
2022-10-19T00:11:30.595Z,16.73
2022-10-19T00:13:58.965Z,16.70
2022-10-19T00:16:28.294Z,16.85
2022-10-19T00:18:59.036Z,16.83
2022-10-19T00:21:26.920Z,16.93
2022-10-19T00:23:54.340Z,16.93
2022-10-19T00:26:22.212Z,16.90
2022-10-19T00:28:49.900Z,16.92
2022-10-19T00:31:17.841Z,16.86
2022-10-19T00:33:46.923Z,16.82
2022-10-19T00:36:17.098Z,16.63
2022-10-19T00:38:44.574Z,16.62
2022-10-19T00:41:12.782Z,16.54
2022-10-19T00:43:52.251Z,16.48
2022-10-19T00:46:20.503Z,16.46
2022-10-19T00:51:16.459Z,16.42
2022-10-19T00:53:44.238Z,16.48
2022-10-19T00:56:14.639Z,16.56
2022-10-19T00:58:43.743Z,16.59
2022-10-19T01:01:13.960Z,16.50
2022-10-19T01:03:41.952Z,16.52
2022-10-19T01:06:10.324Z,16.50
2022-10-19T01:08:37.888Z,16.48
2022-10-19T01:11:16.978Z,16.40
2022-10-19T01:13:49.262Z,16.33
2022-10-19T01:16:22.483Z,16.34
2022-10-19T01:18:49.862Z,16.23
2022-10-19T01:21:34.477Z,16.21
2022-10-19T01:24:18.073Z,16.20
2022-10-19T01:27:04.551Z,16.34
2022-10-19T01:29:47.179Z,16.23
2022-10-19T01:32:22.460Z,16.14
2022-10-19T01:34:59.762Z,16.13
2022-10-19T01:37:32.991Z,16.21
2022-10-19T01:40:07.833Z,16.28
2022-10-19T01:42:46.939Z,16.31
2022-10-19T01:45:18.355Z,16.43
2022-10-19T01:47:53.279Z,16.42
2022-10-19T01:50:41.543Z,16.34
2022-10-19T01:53:10.437Z,16.36
2022-10-19T01:55:39.865Z,16.54
2022-10-19T01:58:09.575Z,16.40
2022-10-19T02:00:39.315Z,16.32
2022-10-19T02:03:07.335Z,16.27
2022-10-19T02:05:36.254Z,16.25
2022-10-19T02:08:11.040Z,16.23
2022-10-19T02:10:40.207Z,16.27
2022-10-19T02:13:08.302Z,16.31
2022-10-19T02:15:38.335Z,16.38
2022-10-19T02:18:07.218Z,16.25
2022-10-19T02:20:36.550Z,16.16
2022-10-19T02:23:07.321Z,16.10
2022-10-19T02:25:35.485Z,16.05
2022-10-19T02:28:03.696Z,16.05
2022-10-19T02:30:31.246Z,16.09
2022-10-19T02:32:58.579Z,16.19
2022-10-19T02:35:26.431Z,16.18
2022-10-19T02:37:55.879Z,16.15
2022-10-19T02:40:24.184Z,16.08
2022-10-19T02:42:56.642Z,16.08
2022-10-19T02:45:28.317Z,16.12
2022-10-19T02:48:01.806Z,16.11
2022-10-19T02:50:29.310Z,16.02
2022-10-19T02:52:58.327Z,15.90
2022-10-19T02:55:25.791Z,15.90
2022-10-19T02:57:53.844Z,15.86
2022-10-19T03:00:21.662Z,15.91
2022-10-19T03:02:49.415Z,15.80
2022-10-19T03:05:16.739Z,15.65
2022-10-19T03:07:44.491Z,15.64
2022-10-19T03:10:12.015Z,15.61
2022-10-19T03:12:39.527Z,15.70
2022-10-19T03:15:07.135Z,15.67
2022-10-19T03:17:35.971Z,15.75
2022-10-19T03:20:03.871Z,15.68
2022-10-19T03:22:31.544Z,15.66
2022-10-19T03:24:59.219Z,15.69
2022-10-19T03:27:26.613Z,15.74
2022-10-19T03:29:55.048Z,15.67
2022-10-19T03:32:22.903Z,15.68
2022-10-19T03:34:50.216Z,15.70
2022-10-19T03:37:18.035Z,15.69
2022-10-19T03:39:45.455Z,15.80
2022-10-19T03:42:12.719Z,15.78
2022-10-19T03:44:40.026Z,15.77
2022-10-19T03:47:07.739Z,15.72
2022-10-19T03:49:38.038Z,15.60
2022-10-19T03:52:10.094Z,15.68
2022-10-19T03:54:37.604Z,15.67
2022-10-19T03:57:05.463Z,15.56
2022-10-19T03:59:32.850Z,15.53
2022-10-19T04:02:00.211Z,15.55
2022-10-19T04:04:27.485Z,15.57
2022-10-19T04:06:54.849Z,15.51
2022-10-19T04:09:22.717Z,15.50
2022-10-19T04:11:50.410Z,15.50
2022-10-19T04:14:31.573Z,15.55
2022-10-19T04:17:02.119Z,15.52
2022-10-19T04:19:29.947Z,15.52
2022-10-19T04:21:57.325Z,15.51
2022-10-19T04:24:24.864Z,15.50
2022-10-19T04:26:54.650Z,15.47
2022-10-19T04:29:26.284Z,15.36
2022-10-19T04:31:57.237Z,15.32
2022-10-19T04:34:25.127Z,15.29
2022-10-19T04:36:53.328Z,15.38
2022-10-19T04:39:21.082Z,15.32
2022-10-19T04:41:48.915Z,15.22
2022-10-19T04:44:16.272Z,15.29
2022-10-19T04:46:43.795Z,15.28
2022-10-19T04:49:11.046Z,15.28
2022-10-19T04:51:38.507Z,15.29
2022-10-19T04:54:05.833Z,15.28
2022-10-19T04:56:33.080Z,15.26
2022-10-19T04:59:01.045Z,15.28
2022-10-19T05:01:29.419Z,15.27
2022-10-19T05:03:58.420Z,15.28
2022-10-19T05:06:26.113Z,15.32
2022-10-19T05:08:53.472Z,15.29
2022-10-19T05:11:21.134Z,15.32
2022-10-19T05:13:49.347Z,15.25
2022-10-19T05:16:18.090Z,15.21
2022-10-19T05:18:49.558Z,15.21
2022-10-19T05:21:17.447Z,15.18
2022-10-19T05:23:44.926Z,15.17
2022-10-19T05:26:15.476Z,15.22
2022-10-19T05:28:43.280Z,15.19
2022-10-19T05:31:12.659Z,15.21
2022-10-19T05:33:41.009Z,15.17
2022-10-19T05:36:18.985Z,15.07
2022-10-19T05:38:46.896Z,15.05
2022-10-19T05:41:15.370Z,14.94
2022-10-19T05:43:42.771Z,15.03
2022-10-19T05:46:12.490Z,15.07
2022-10-19T05:48:40.567Z,15.14
2022-10-19T05:51:09.067Z,15.12
2022-10-19T05:53:36.432Z,15.22
2022-10-19T05:56:08.198Z,15.21
2022-10-19T05:58:35.753Z,15.18
2022-10-19T06:01:03.922Z,15.25
2022-10-19T06:03:31.715Z,15.40
2022-10-19T06:05:59.039Z,15.38
2022-10-19T06:08:26.899Z,15.43
2022-10-19T06:11:04.192Z,15.41
2022-10-19T06:13:31.863Z,15.54
2022-10-19T06:15:59.286Z,15.47
2022-10-19T06:18:26.702Z,15.56
2022-10-19T06:20:54.151Z,15.75
2022-10-19T06:23:21.505Z,15.82
2022-10-19T06:25:49.231Z,15.80
2022-10-19T06:28:17.548Z,15.90
2022-10-19T06:30:45.051Z,16.01
2022-10-19T06:33:12.427Z,16.14
2022-10-19T06:35:42.379Z,16.19
2022-10-19T06:38:09.835Z,16.09
2022-10-19T06:40:37.279Z,16.09
2022-10-19T06:43:05.053Z,16.35
2022-10-19T06:45:35.916Z,16.55
2022-10-19T06:48:06.810Z,16.71
2022-10-19T06:50:35.709Z,16.69
2022-10-19T06:53:03.850Z,16.69
2022-10-19T06:55:32.024Z,16.79
2022-10-19T06:58:01.799Z,16.87
2022-10-19T07:00:29.655Z,16.99
2022-10-19T07:02:59.556Z,16.90
2022-10-19T07:05:26.982Z,17.10
2022-10-19T07:07:54.715Z,17.40
2022-10-19T07:10:21.992Z,17.54
2022-10-19T07:12:49.359Z,17.66
2022-10-19T07:15:17.219Z,17.94
2022-10-19T07:17:45.308Z,18.03
2022-10-19T07:20:12.834Z,17.92
2022-10-19T07:22:40.180Z,18.02
2022-10-19T07:25:08.735Z,18.17
2022-10-19T07:27:37.798Z,18.25
2022-10-19T07:30:06.120Z,17.94
2022-10-19T07:32:33.456Z,18.34
2022-10-19T07:35:00.817Z,18.54
2022-10-19T07:37:29.098Z,18.74
2022-10-19T07:39:56.360Z,18.69
2022-10-19T07:42:23.823Z,18.84
2022-10-19T07:44:51.324Z,18.85
2022-10-19T07:47:19.373Z,19.01
2022-10-19T07:49:47.620Z,19.00
2022-10-19T07:52:15.309Z,19.08
2022-10-19T07:54:42.591Z,19.08
2022-10-19T07:57:12.724Z,19.13
2022-10-19T07:59:40.693Z,19.37
2022-10-19T08:02:14.632Z,19.53
2022-10-19T08:04:59.784Z,19.66
2022-10-19T08:07:29.640Z,19.55
2022-10-19T08:09:57.067Z,19.67
2022-10-19T08:12:24.371Z,19.75
2022-10-19T08:14:51.591Z,19.92
2022-10-19T08:17:19.011Z,20.06
2022-10-19T08:19:47.047Z,20.00
2022-10-19T08:22:14.917Z,20.24
2022-10-19T08:24:42.178Z,20.63
2022-10-19T08:27:09.581Z,20.68
2022-10-19T08:29:37.285Z,20.99
2022-10-19T08:32:04.997Z,21.63
2022-10-19T08:34:33.340Z,21.30
2022-10-19T08:37:06.833Z,21.68
2022-10-19T08:39:42.722Z,22.35
2022-10-19T08:42:16.223Z,23.18
2022-10-19T08:44:50.176Z,23.44
2022-10-19T08:47:53.207Z,23.89
2022-10-19T08:50:22.398Z,23.99
2022-10-19T08:52:53.833Z,24.54
2022-10-19T08:55:28.542Z,25.30
2022-10-19T08:58:04.933Z,25.32
2022-10-19T09:03:37.607Z,25.73
2022-10-19T09:06:20.235Z,25.53
2022-10-19T09:08:48.691Z,26.75
2022-10-19T09:11:16.838Z,25.46
2022-10-19T09:14:04.200Z,26.09
2022-10-19T09:16:33.111Z,26.60
2022-10-19T09:19:01.021Z,26.20
2022-10-19T09:21:47.246Z,27.35
2022-10-19T09:24:27.714Z,25.85
2022-10-19T09:26:59.741Z,27.45
2022-10-19T09:29:39.469Z,27.94
2022-10-19T09:32:13.118Z,28.06
2022-10-19T09:34:46.798Z,27.73
2022-10-19T09:37:21.883Z,28.82
2022-10-19T09:39:55.172Z,27.44
2022-10-19T09:42:25.740Z,28.07
2022-10-19T09:44:54.451Z,29.30
2022-10-19T09:47:34.309Z,29.20
2022-10-19T09:50:08.579Z,29.41
2022-10-19T09:52:36.060Z,30.15
2022-10-19T09:55:06.927Z,30.86
2022-10-19T09:57:41.652Z,29.54
2022-10-19T10:00:29.184Z,30.26
2022-10-19T10:02:56.910Z,29.78
2022-10-19T10:05:33.309Z,30.67
2022-10-19T10:08:01.959Z,31.19
2022-10-19T10:10:34.612Z,31.35
2022-10-19T10:13:02.608Z,32.00
2022-10-19T10:15:35.391Z,32.24
2022-10-19T10:18:03.672Z,31.50
2022-10-19T10:20:32.722Z,28.43
2022-10-19T10:23:02.515Z,28.38
2022-10-19T10:25:31.285Z,28.67
2022-10-19T10:28:00.720Z,29.41
2022-10-19T10:30:30.595Z,29.11
2022-10-19T10:33:08.052Z,28.11
2022-10-19T10:35:49.218Z,29.95
2022-10-19T10:38:18.164Z,30.58
2022-10-19T10:40:50.951Z,31.41
2022-10-19T10:43:21.211Z,31.02
2022-10-19T10:45:53.009Z,31.27
2022-10-19T10:48:31.970Z,29.96
2022-10-19T10:51:00.971Z,30.70
2022-10-19T10:53:32.387Z,30.38
2022-10-19T10:55:59.812Z,30.27
2022-10-19T10:58:33.757Z,31.01
2022-10-19T11:01:07.802Z,30.29
2022-10-19T11:03:38.001Z,28.34
2022-10-19T11:06:05.514Z,29.81
2022-10-19T11:08:33.052Z,29.76
2022-10-19T11:11:10.578Z,30.08
2022-10-19T11:13:41.868Z,29.38
2022-10-19T11:16:13.799Z,28.84
2022-10-19T11:19:19.317Z,30.01
2022-10-19T11:21:46.831Z,30.69
2022-10-19T11:24:23.453Z,30.73
2022-10-19T11:26:57.265Z,31.50
2022-10-19T11:29:30.465Z,31.72
2022-10-19T11:31:58.190Z,31.64
2022-10-19T11:34:44.513Z,30.66
2022-10-19T11:37:20.686Z,30.74
2022-10-19T11:39:53.844Z,30.71
2022-10-19T11:42:40.480Z,31.37
2022-10-19T11:45:19.357Z,30.17
2022-10-19T11:47:52.088Z,30.62
2022-10-19T11:50:24.302Z,31.85
2022-10-19T11:52:56.516Z,32.12
2022-10-19T11:55:46.630Z,30.98
2022-10-19T11:58:35.003Z,31.28
2022-10-19T12:01:21.120Z,30.92
2022-10-19T12:04:14.216Z,32.10
2022-10-19T12:06:41.437Z,31.99
2022-10-19T12:09:24.899Z,32.33
2022-10-19T12:11:59.745Z,31.97
2022-10-19T12:14:30.952Z,32.07
2022-10-19T12:17:01.228Z,31.77
2022-10-19T12:19:33.932Z,31.80
2022-10-19T12:22:07.182Z,32.48
2022-10-19T12:24:36.029Z,33.15
2022-10-19T12:27:05.584Z,32.39
2022-10-19T12:29:42.452Z,33.59
2022-10-19T12:32:12.098Z,31.09
2022-10-19T12:34:54.892Z,32.07
2022-10-19T12:37:35.560Z,32.07
2022-10-19T12:40:19.490Z,31.99
2022-10-19T12:42:53.092Z,31.54
2022-10-19T12:45:35.200Z,31.42
2022-10-19T12:48:08.623Z,32.85
2022-10-19T12:50:48.338Z,33.55
2022-10-19T12:53:30.833Z,32.85
2022-10-19T12:56:03.857Z,33.33
2022-10-19T12:58:38.155Z,32.42
2022-10-19T13:01:07.438Z,33.08
2022-10-19T13:03:37.232Z,34.05
2022-10-19T13:06:09.877Z,33.58
2022-10-19T13:08:47.801Z,32.74
2022-10-19T13:11:15.647Z,31.68
2022-10-19T13:13:55.001Z,33.74
2022-10-19T13:16:28.511Z,34.16
2022-10-19T13:19:01.864Z,33.04
2022-10-19T13:21:48.694Z,34.92
2022-10-19T13:24:20.226Z,34.39
2022-10-19T13:26:47.571Z,36.07
2022-10-19T13:29:24.797Z,36.33
2022-10-19T13:31:52.643Z,34.31
2022-10-19T13:34:20.279Z,35.60
2022-10-19T13:37:13.654Z,37.39
2022-10-19T13:39:42.267Z,39.74
2022-10-19T13:42:27.491Z,39.23
2022-10-19T13:44:56.235Z,38.19
2022-10-19T13:47:31.471Z,34.57
2022-10-19T13:50:02.269Z,36.57
2022-10-19T13:52:42.935Z,38.07
2022-10-19T13:55:13.807Z,37.41
2022-10-19T13:57:41.468Z,38.89
2022-10-19T14:00:11.613Z,37.82
2022-10-19T14:03:04.409Z,38.81
2022-10-19T14:05:53.754Z,36.55
2022-10-19T14:08:36.454Z,34.04
2022-10-19T14:11:04.091Z,36.53
2022-10-19T14:13:31.893Z,35.58
2022-10-19T14:16:02.801Z,36.80
2022-10-19T14:18:32.028Z,36.05
2022-10-19T14:21:10.224Z,34.83
2022-10-19T14:23:40.217Z,36.09
2022-10-19T14:26:13.832Z,38.11
2022-10-19T14:28:41.578Z,39.01
2022-10-19T14:31:10.505Z,39.67
2022-10-19T14:33:41.612Z,39.32
2022-10-19T14:36:14.697Z,39.00
2022-10-19T14:38:46.556Z,39.17
2022-10-19T14:41:20.131Z,39.34
2022-10-19T14:43:47.970Z,37.69
2022-10-19T14:46:16.450Z,38.84
2022-10-19T14:48:45.660Z,38.77
2022-10-19T14:51:36.870Z,37.79
2022-10-19T14:54:22.495Z,37.12
2022-10-19T14:56:49.721Z,34.90
2022-10-19T14:59:24.877Z,35.18
2022-10-19T15:01:57.297Z,36.19
2022-10-19T15:04:30.038Z,36.34
2022-10-19T15:06:59.660Z,34.36
2022-10-19T15:09:37.811Z,36.20
2022-10-19T15:12:19.501Z,35.70
2022-10-19T15:14:47.808Z,34.98
2022-10-19T15:17:29.755Z,34.96
2022-10-19T15:20:00.804Z,33.97
2022-10-19T15:22:32.068Z,32.83
2022-10-19T15:25:00.029Z,31.09
2022-10-19T15:27:32.509Z,29.65
2022-10-19T15:30:02.911Z,29.15
2022-10-19T15:32:36.272Z,28.42
2022-10-19T15:35:12.060Z,28.27
2022-10-19T15:37:42.111Z,27.94
2022-10-19T15:40:13.633Z,27.45
2022-10-19T15:42:44.475Z,27.18
2022-10-19T15:45:50.029Z,26.92
2022-10-19T15:48:23.172Z,26.43
2022-10-19T15:50:52.027Z,26.28
2022-10-19T15:53:20.228Z,26.10
2022-10-19T15:55:48.468Z,25.80
2022-10-19T15:58:16.134Z,25.68
2022-10-19T16:00:43.957Z,25.61
2022-10-19T16:03:11.535Z,25.57
2022-10-19T16:05:39.215Z,25.33
2022-10-19T16:08:10.109Z,25.15
2022-10-19T16:10:40.654Z,24.89
2022-10-19T16:13:07.943Z,24.60
2022-10-19T16:15:35.157Z,24.36
2022-10-19T16:18:02.923Z,24.22
2022-10-19T16:20:30.296Z,23.92
2022-10-19T16:22:58.651Z,23.79
2022-10-19T16:25:26.061Z,23.61
2022-10-19T16:27:53.388Z,23.45
2022-10-19T16:30:20.716Z,23.36
2022-10-19T16:32:48.676Z,23.26
2022-10-19T16:35:16.947Z,23.11
2022-10-19T16:37:44.302Z,23.05
2022-10-19T16:40:11.769Z,22.93
2022-10-19T16:42:39.321Z,22.84
2022-10-19T16:47:34.461Z,22.64
2022-10-19T16:50:02.941Z,22.61
2022-10-19T16:52:34.517Z,22.47
2022-10-19T16:55:02.412Z,22.36
2022-10-19T16:57:29.893Z,22.26
2022-10-19T16:59:57.327Z,22.17
2022-10-19T17:02:24.992Z,22.09
2022-10-19T17:04:53.181Z,22.01
2022-10-19T17:07:20.767Z,22.00
2022-10-19T17:09:52.274Z,22.00
2022-10-19T17:12:22.924Z,21.94
2022-10-19T17:14:51.324Z,21.84
2022-10-19T17:17:19.398Z,21.95
2022-10-19T17:19:47.651Z,21.88
2022-10-19T17:22:15.367Z,21.75
2022-10-19T17:24:43.179Z,21.69
2022-10-19T17:27:10.981Z,21.74
2022-10-19T17:29:38.234Z,21.63
2022-10-19T17:32:05.761Z,21.55
2022-10-19T17:34:33.128Z,21.46
2022-10-19T17:37:00.379Z,21.45
2022-10-19T17:39:29.897Z,21.39
2022-10-19T17:42:01.654Z,21.29
2022-10-19T17:44:31.307Z,21.22
2022-10-19T17:46:59.775Z,21.18
2022-10-19T17:49:27.067Z,21.09
2022-10-19T17:51:54.338Z,21.00
2022-10-19T17:54:21.835Z,20.96
2022-10-19T17:56:49.631Z,20.91
2022-10-19T17:59:17.281Z,20.85
2022-10-19T18:01:45.892Z,20.82
2022-10-19T18:04:13.771Z,20.78
2022-10-19T18:06:41.503Z,20.75
2022-10-19T18:09:09.658Z,20.64
2022-10-19T18:11:39.539Z,20.61
2022-10-19T18:14:08.380Z,20.48
2022-10-19T18:16:37.938Z,20.57
2022-10-19T18:19:05.906Z,20.70
2022-10-19T18:21:36.126Z,20.61
2022-10-19T18:24:03.494Z,20.55
2022-10-19T18:26:31.808Z,20.53
2022-10-19T18:29:00.566Z,20.61
2022-10-19T18:31:29.638Z,20.71
2022-10-19T18:33:59.959Z,20.66
2022-10-19T18:36:27.698Z,20.45
2022-10-19T18:38:56.734Z,20.39
2022-10-19T18:41:25.245Z,20.23
2022-10-19T18:43:53.922Z,20.12
2022-10-19T18:46:22.003Z,20.26
2022-10-19T18:48:50.000Z,20.20
2022-10-19T18:51:18.455Z,20.18
2022-10-19T18:53:46.123Z,20.06
2022-10-19T18:56:14.890Z,20.03
2022-10-19T18:58:43.777Z,19.94
2022-10-19T19:01:16.233Z,19.88
2022-10-19T19:03:45.434Z,19.74
2022-10-19T19:06:13.486Z,19.78
2022-10-19T19:08:41.620Z,19.99
2022-10-19T19:11:10.526Z,19.88
2022-10-19T19:13:38.254Z,19.90
2022-10-19T19:16:06.958Z,19.90
2022-10-19T19:18:35.186Z,19.80
2022-10-19T19:21:03.774Z,19.77
2022-10-19T19:23:31.371Z,19.62
2022-10-19T19:25:59.030Z,19.62
2022-10-19T19:28:26.951Z,19.66
2022-10-19T19:30:54.341Z,19.70
2022-10-19T19:33:21.932Z,19.70
2022-10-19T19:35:50.405Z,19.70
2022-10-19T19:38:18.019Z,19.66
2022-10-19T19:40:46.541Z,19.57
2022-10-19T19:43:15.543Z,19.51
2022-10-19T19:45:43.677Z,19.32
2022-10-19T19:48:11.493Z,19.21
2022-10-19T19:50:39.179Z,19.33
2022-10-19T19:53:06.890Z,19.17
2022-10-19T19:55:38.870Z,19.15
2022-10-19T19:58:06.931Z,19.10
2022-10-19T20:00:34.153Z,19.06
2022-10-19T20:03:01.431Z,19.01
2022-10-19T20:05:29.779Z,18.98
2022-10-19T20:07:57.881Z,18.98
2022-10-19T20:10:25.727Z,18.89
2022-10-19T20:12:53.316Z,18.98
2022-10-19T20:15:21.799Z,18.88
2022-10-19T20:17:49.011Z,18.83
2022-10-19T20:20:19.684Z,18.90
2022-10-19T20:22:47.814Z,18.87
2022-10-19T20:25:15.717Z,18.93
2022-10-19T20:27:42.946Z,19.15
2022-10-19T20:30:11.885Z,19.10
2022-10-19T20:32:39.437Z,18.99
2022-10-19T20:35:07.557Z,19.02
2022-10-19T20:37:34.969Z,19.04
2022-10-19T20:40:08.630Z,19.16
2022-10-19T20:42:36.982Z,19.08
2022-10-19T20:45:04.711Z,19.06
2022-10-19T20:47:32.608Z,18.99
2022-10-19T20:50:00.879Z,19.02
2022-10-19T20:52:28.141Z,19.00
2022-10-19T20:54:55.452Z,19.01
2022-10-19T20:57:23.159Z,19.08
2022-10-19T20:59:50.863Z,18.96
2022-10-19T21:02:18.961Z,18.93
2022-10-19T21:04:46.637Z,18.93
2022-10-19T21:07:13.915Z,18.85
2022-10-19T21:09:41.243Z,18.93
2022-10-19T21:12:08.734Z,18.93
2022-10-19T21:14:37.219Z,18.94
2022-10-19T21:17:05.032Z,18.92
2022-10-19T21:19:32.788Z,18.88
2022-10-19T21:22:02.264Z,18.87
2022-10-19T21:24:32.505Z,18.71
2022-10-19T21:27:01.517Z,18.75
2022-10-19T21:29:29.797Z,18.76
2022-10-19T21:31:57.071Z,18.75
2022-10-19T21:34:25.933Z,18.60
2022-10-19T21:36:54.194Z,18.61
2022-10-19T21:39:22.239Z,18.63
2022-10-19T21:41:50.042Z,18.60
2022-10-19T21:44:18.005Z,18.45
2022-10-19T21:46:49.314Z,18.26
2022-10-19T21:49:17.371Z,18.18
2022-10-19T21:51:54.567Z,18.02
2022-10-19T21:54:24.925Z,17.96
2022-10-19T21:56:53.403Z,17.94
2022-10-19T21:59:20.905Z,18.02
2022-10-19T22:01:49.168Z,18.05
2022-10-19T22:04:18.376Z,18.00
2022-10-19T22:06:46.993Z,18.01
2022-10-19T22:09:16.631Z,18.08
2022-10-19T22:11:45.010Z,18.05
2022-10-19T22:14:13.764Z,18.05
2022-10-19T22:16:41.864Z,17.88
2022-10-19T22:19:10.142Z,17.89
2022-10-19T22:24:13.229Z,17.95
2022-10-19T22:26:42.373Z,17.87
2022-10-19T22:29:10.559Z,17.89
2022-10-19T22:31:38.713Z,17.94
2022-10-19T22:34:07.910Z,17.89
2022-10-19T22:36:35.866Z,17.84
2022-10-19T22:39:03.342Z,17.96
2022-10-19T22:42:07.965Z,17.99
2022-10-19T22:45:12.634Z,18.05
2022-10-19T22:47:45.702Z,18.02
2022-10-19T22:50:13.204Z,18.04
2022-10-19T22:52:41.015Z,17.97
2022-10-19T22:55:09.034Z,17.93
2022-10-19T22:57:36.285Z,17.95
2022-10-19T23:00:04.156Z,17.88
2022-10-19T23:02:31.444Z,17.83
2022-10-19T23:04:58.921Z,17.75
2022-10-19T23:07:26.720Z,17.75
2022-10-19T23:09:54.017Z,17.86
2022-10-19T23:12:21.428Z,17.79
2022-10-19T23:14:49.058Z,17.70
2022-10-19T23:17:16.316Z,17.75
2022-10-19T23:19:44.086Z,17.80
2022-10-19T23:22:11.454Z,17.80
2022-10-19T23:24:38.948Z,17.65
2022-10-19T23:27:06.251Z,17.60
2022-10-19T23:29:34.063Z,17.63
2022-10-19T23:32:01.855Z,17.67
2022-10-19T23:34:29.679Z,17.69
2022-10-19T23:36:57.092Z,17.77
2022-10-19T23:39:24.974Z,17.64
2022-10-19T23:41:52.247Z,17.61
2022-10-19T23:44:19.506Z,17.61
2022-10-19T23:46:47.169Z,17.49
2022-10-19T23:49:14.459Z,17.45
2022-10-19T23:51:41.922Z,17.35
2022-10-19T23:54:09.258Z,17.24
2022-10-19T23:56:36.545Z,17.19
2022-10-19T23:59:07.298Z,17.23
